createdAt,value
2022-11-10T00:02:21.899Z,6.25
2022-11-10T00:05:12.433Z,6.49
2022-11-10T00:08:05.210Z,6.51
2022-11-10T00:11:02.099Z,6.32
2022-11-10T00:14:08.958Z,6.44
2022-11-10T00:17:04.841Z,6.36
2022-11-10T00:19:53.632Z,5.99
2022-11-10T00:22:43.567Z,6.27
2022-11-10T00:25:33.825Z,6.18
2022-11-10T00:28:22.041Z,6.27
2022-11-10T00:31:11.206Z,6.31
2022-11-10T00:34:00.052Z,6.23
2022-11-10T00:36:47.531Z,6.35
2022-11-10T00:39:38.504Z,6.02
2022-11-10T00:42:26.754Z,6.33
2022-11-10T00:45:15.356Z,6.25
2022-11-10T00:48:04.053Z,6.24
2022-11-10T00:50:53.553Z,6.20
2022-11-10T00:53:42.071Z,6.04
2022-11-10T00:56:31.492Z,5.85
2022-11-10T00:59:20.718Z,5.57
2022-11-10T01:02:09.739Z,5.99
2022-11-10T01:04:58.902Z,5.73
2022-11-10T01:07:47.147Z,6.06
2022-11-10T01:10:35.842Z,6.04
2022-11-10T01:13:26.098Z,5.81
2022-11-10T01:16:16.299Z,5.69
2022-11-10T01:19:05.411Z,6.06
2022-11-10T01:21:54.355Z,5.90
2022-11-10T01:24:42.829Z,5.80
2022-11-10T01:27:31.245Z,5.82
2022-11-10T01:30:22.163Z,6.05
2022-11-10T01:33:10.364Z,6.09
2022-11-10T01:35:58.463Z,6.06
2022-11-10T01:38:46.825Z,6.24
2022-11-10T01:41:34.844Z,6.29
2022-11-10T01:44:25.191Z,6.00
2022-11-10T01:47:15.322Z,6.22
2022-11-10T01:50:03.561Z,6.04
2022-11-10T01:52:53.204Z,6.21
2022-11-10T01:55:45.134Z,6.07
2022-11-10T01:58:40.158Z,6.33
2022-11-10T02:01:30.593Z,6.21
2022-11-10T02:04:21.967Z,6.24
2022-11-10T02:07:11.880Z,6.35
2022-11-10T02:09:59.969Z,6.17
2022-11-10T02:12:49.175Z,6.14
2022-11-10T02:15:42.977Z,6.27
2022-11-10T02:18:38.079Z,6.26
2022-11-10T02:21:34.435Z,5.89
2022-11-10T02:24:23.134Z,5.60
2022-11-10T02:27:11.133Z,6.04
2022-11-10T02:30:01.165Z,6.21
2022-11-10T02:32:50.994Z,5.83
2022-11-10T02:35:39.238Z,6.09
2022-11-10T02:38:28.764Z,6.18
2022-11-10T02:41:16.552Z,5.55
2022-11-10T02:44:06.292Z,6.14
2022-11-10T02:46:54.819Z,6.15
2022-11-10T02:49:45.116Z,6.15
2022-11-10T02:52:34.201Z,6.22
2022-11-10T02:55:23.730Z,6.08
2022-11-10T02:58:11.953Z,6.22
2022-11-10T03:01:00.107Z,6.27
2022-11-10T03:03:49.723Z,6.15
2022-11-10T03:06:38.147Z,6.25
2022-11-10T03:09:26.508Z,6.75
2022-11-10T03:12:15.959Z,6.85
2022-11-10T03:15:03.974Z,6.65
2022-11-10T03:17:52.617Z,6.88
2022-11-10T03:20:41.297Z,6.87
2022-11-10T03:23:29.912Z,7.10
2022-11-10T03:26:18.258Z,6.97
2022-11-10T03:29:07.494Z,7.16
2022-11-10T03:31:56.288Z,7.19
2022-11-10T03:34:45.654Z,7.01
2022-11-10T03:37:34.345Z,7.16
2022-11-10T03:40:22.526Z,7.31
2022-11-10T03:43:13.431Z,7.53
2022-11-10T03:46:03.423Z,7.26
2022-11-10T03:48:53.811Z,7.34
2022-11-10T03:51:41.868Z,7.56
2022-11-10T03:54:30.503Z,7.55
2022-11-10T03:57:19.055Z,7.71
2022-11-10T04:00:09.724Z,7.46
2022-11-10T04:02:59.928Z,7.16
2022-11-10T04:06:06.900Z,7.58
2022-11-10T04:09:01.504Z,7.58
2022-11-10T04:12:07.496Z,7.65
2022-11-10T04:15:15.096Z,7.61
2022-11-10T04:18:19.410Z,7.51
2022-11-10T04:21:08.074Z,7.74
2022-11-10T04:23:56.584Z,7.73
2022-11-10T04:26:48.769Z,7.23
2022-11-10T04:29:37.318Z,7.86
2022-11-10T04:32:25.523Z,7.70
2022-11-10T04:35:15.356Z,7.82
2022-11-10T04:38:03.382Z,7.60
2022-11-10T04:40:51.726Z,7.55
2022-11-10T04:43:41.515Z,7.77
2022-11-10T04:46:31.600Z,7.98
2022-11-10T04:49:20.455Z,7.69
2022-11-10T04:52:09.717Z,7.66
2022-11-10T04:54:57.430Z,7.75
2022-11-10T04:57:45.684Z,7.69
2022-11-10T05:00:34.417Z,7.94
2022-11-10T05:03:29.627Z,8.00
2022-11-10T05:06:18.698Z,8.06
2022-11-10T05:09:08.538Z,7.93
2022-11-10T05:11:58.337Z,7.95
2022-11-10T05:14:46.610Z,8.11
2022-11-10T05:17:37.877Z,8.12
2022-11-10T05:20:29.459Z,8.01
2022-11-10T05:23:34.958Z,7.98
2022-11-10T05:26:26.083Z,8.19
2022-11-10T05:29:15.640Z,7.64
2022-11-10T05:32:04.556Z,7.98
2022-11-10T05:34:53.003Z,8.38
2022-11-10T05:37:45.557Z,8.46
2022-11-10T05:40:34.833Z,8.26
2022-11-10T05:43:25.669Z,7.84
2022-11-10T05:46:14.930Z,7.87
2022-11-10T05:49:06.440Z,7.66
2022-11-10T05:52:32.577Z,7.91
2022-11-10T05:55:26.336Z,7.78
2022-11-10T05:58:14.823Z,7.98
2022-11-10T06:01:05.995Z,8.20
2022-11-10T06:03:54.380Z,7.89
2022-11-10T06:06:43.467Z,7.55
2022-11-10T06:09:31.324Z,7.85
2022-11-10T06:12:19.828Z,7.63
2022-11-10T06:15:12.604Z,7.20
2022-11-10T06:18:02.853Z,7.87
2022-11-10T06:20:52.666Z,7.73
2022-11-10T06:23:41.018Z,7.69
2022-11-10T06:26:29.017Z,7.87
2022-11-10T06:29:18.049Z,8.07
2022-11-10T06:32:08.378Z,8.27
2022-11-10T06:35:00.710Z,8.12
2022-11-10T06:38:00.297Z,7.67
2022-11-10T06:40:48.113Z,7.75
2022-11-10T06:43:37.949Z,7.75
2022-11-10T06:46:26.759Z,8.35
2022-11-10T06:49:14.972Z,8.46
2022-11-10T06:52:04.835Z,7.77
2022-11-10T06:54:53.435Z,7.74
2022-11-10T06:57:41.939Z,8.53
2022-11-10T07:00:32.399Z,7.06
2022-11-10T07:03:21.738Z,8.07
2022-11-10T07:06:10.105Z,8.49
2022-11-10T07:08:59.643Z,8.55
2022-11-10T07:11:47.670Z,8.67
2022-11-10T07:14:35.827Z,8.46
2022-11-10T07:17:25.605Z,8.83
2022-11-10T07:20:13.944Z,8.87
2022-11-10T07:23:04.183Z,8.75
2022-11-10T07:26:22.175Z,8.98
2022-11-10T07:29:10.285Z,9.41
2022-11-10T07:31:59.009Z,9.40
2022-11-10T07:34:46.643Z,9.27
2022-11-10T07:37:35.278Z,9.14
2022-11-10T07:40:24.275Z,9.15
2022-11-10T07:43:13.498Z,9.45
2022-11-10T07:46:01.812Z,9.65
2022-11-10T07:48:49.730Z,9.25
2022-11-10T07:51:38.039Z,8.89
2022-11-10T07:54:26.732Z,9.15
2022-11-10T07:57:14.961Z,9.29
2022-11-10T08:00:05.456Z,8.32
2022-11-10T08:02:53.694Z,9.80
2022-11-10T08:05:42.695Z,9.34
2022-11-10T08:08:33.721Z,9.49
2022-11-10T08:11:22.262Z,9.51
2022-11-10T08:14:10.451Z,8.75
2022-11-10T08:16:59.789Z,9.70
2022-11-10T08:19:48.685Z,9.63
2022-11-10T08:22:36.424Z,9.78
2022-11-10T08:25:24.320Z,10.01
2022-11-10T08:28:14.139Z,9.70
2022-11-10T08:31:06.231Z,10.00
2022-11-10T08:33:55.491Z,10.00
2022-11-10T08:36:43.640Z,9.95
2022-11-10T08:39:39.163Z,9.68
2022-11-10T08:42:27.353Z,9.42
2022-11-10T08:45:16.367Z,10.06
2022-11-10T08:48:06.245Z,9.74
2022-11-10T08:50:56.433Z,9.47
2022-11-10T08:53:45.708Z,9.90
2022-11-10T08:56:33.794Z,9.89
2022-11-10T08:59:22.496Z,9.99
2022-11-10T09:02:11.345Z,10.22
2022-11-10T09:04:59.941Z,10.13
2022-11-10T09:07:51.367Z,10.30
2022-11-10T09:10:42.439Z,10.13
2022-11-10T09:13:30.979Z,9.67
2022-11-10T09:16:19.183Z,9.87
2022-11-10T09:19:13.164Z,10.30
2022-11-10T09:22:03.779Z,10.00
2022-11-10T09:24:52.874Z,10.57
2022-11-10T09:27:41.179Z,10.17
2022-11-10T09:30:29.530Z,10.34
2022-11-10T09:33:18.274Z,8.88
2022-11-10T09:36:07.198Z,10.24
2022-11-10T09:38:56.928Z,9.63
2022-11-10T09:41:47.306Z,9.70
2022-11-10T09:44:40.561Z,9.72
2022-11-10T09:50:50.611Z,10.19
2022-11-10T09:53:43.067Z,10.02
2022-11-10T09:56:35.336Z,10.23
2022-11-10T09:59:29.520Z,10.01
2022-11-10T10:02:27.230Z,10.79
2022-11-10T10:05:37.103Z,10.29
2022-11-10T10:08:33.843Z,10.94
2022-11-10T10:11:31.136Z,10.14
2022-11-10T10:14:35.757Z,10.39
2022-11-10T10:17:29.888Z,10.25
2022-11-10T10:20:25.362Z,10.54
2022-11-10T10:23:40.463Z,10.30
2022-11-10T10:26:34.175Z,10.22
2022-11-10T10:29:25.683Z,9.05
2022-11-10T10:32:17.404Z,10.10
2022-11-10T10:35:07.128Z,9.43
2022-11-10T10:37:58.922Z,9.47
2022-11-10T10:40:50.239Z,9.59
2022-11-10T10:43:38.810Z,9.82
2022-11-10T10:46:35.773Z,9.77
2022-11-10T10:49:30.813Z,9.82
2022-11-10T10:52:25.150Z,9.06
2022-11-10T10:55:15.125Z,8.96
2022-11-10T10:58:05.750Z,9.05
2022-11-10T11:00:57.645Z,9.20
2022-11-10T11:03:48.375Z,9.98
2022-11-10T11:06:38.183Z,9.80
2022-11-10T11:09:31.533Z,10.13
2022-11-10T11:12:31.560Z,9.63
2022-11-10T11:15:28.442Z,9.45
2022-11-10T11:18:18.706Z,9.24
2022-11-10T11:21:14.310Z,9.21
2022-11-10T11:27:05.259Z,9.15
2022-11-10T11:30:07.258Z,9.11
2022-11-10T11:33:48.345Z,9.39
2022-11-10T11:36:51.603Z,9.34
2022-11-10T11:39:54.564Z,9.39
2022-11-10T11:42:56.132Z,9.74
2022-11-10T11:45:51.947Z,7.89
2022-11-10T11:48:57.669Z,8.68
2022-11-10T11:51:57.315Z,9.37
2022-11-10T11:55:01.589Z,9.47
2022-11-10T11:58:05.700Z,9.32
2022-11-10T12:01:07.132Z,9.61
2022-11-10T12:04:23.625Z,9.58
2022-11-10T12:07:35.956Z,9.55
2022-11-10T12:10:40.527Z,9.84
2022-11-10T12:13:41.542Z,9.26
2022-11-10T12:16:32.340Z,8.95
2022-11-10T12:19:37.266Z,9.29
2022-11-10T12:22:35.632Z,9.38
2022-11-10T12:25:35.255Z,8.08
2022-11-10T12:28:27.641Z,8.95
2022-11-10T12:31:26.492Z,8.93
2022-11-10T12:34:21.645Z,8.60
2022-11-10T12:37:27.976Z,9.41
2022-11-10T12:40:27.533Z,9.30
2022-11-10T12:43:22.170Z,9.54
2022-11-10T12:46:16.560Z,9.63
2022-11-10T12:49:16.068Z,8.90
2022-11-10T12:52:12.818Z,9.21
2022-11-10T12:55:02.295Z,9.99
2022-11-10T12:57:55.845Z,9.45
2022-11-10T13:00:46.970Z,9.51
2022-11-10T13:03:39.472Z,9.55
2022-11-10T13:06:31.913Z,9.31
2022-11-10T13:09:26.289Z,8.62
2022-11-10T13:12:23.757Z,9.03
2022-11-10T13:15:48.405Z,9.37
2022-11-10T13:19:02.275Z,8.99
2022-11-10T13:22:11.286Z,9.38
2022-11-10T13:25:37.850Z,9.34
2022-11-10T13:29:06.901Z,9.28
2022-11-10T13:31:58.319Z,9.12
2022-11-10T13:34:47.845Z,8.66
2022-11-10T13:37:50.895Z,8.84
2022-11-10T13:40:41.092Z,9.25
2022-11-10T13:43:30.553Z,9.47
2022-11-10T13:46:20.742Z,9.58
2022-11-10T13:49:26.436Z,8.29
2022-11-10T13:52:19.520Z,9.32
2022-11-10T13:55:21.206Z,9.16
2022-11-10T13:58:13.783Z,8.30
2022-11-10T14:01:26.263Z,9.72
2022-11-10T14:04:40.160Z,8.96
2022-11-10T14:07:39.217Z,9.26
2022-11-10T14:10:39.916Z,8.97
2022-11-10T14:13:40.352Z,9.41
2022-11-10T14:16:32.322Z,8.90
2022-11-10T14:19:35.113Z,9.18
2022-11-10T14:22:35.554Z,9.20
2022-11-10T14:25:29.940Z,9.26
2022-11-10T14:28:27.211Z,9.29
2022-11-10T14:31:20.668Z,9.57
2022-11-10T14:34:16.909Z,9.46
2022-11-10T14:37:19.288Z,8.91
2022-11-10T14:40:18.539Z,9.30
2022-11-10T14:43:08.469Z,8.97
2022-11-10T14:45:58.770Z,9.19
2022-11-10T14:48:59.813Z,9.46
2022-11-10T14:52:00.659Z,9.60
2022-11-10T14:54:49.510Z,7.80
2022-11-10T14:57:40.873Z,9.25
2022-11-10T15:00:51.666Z,9.46
2022-11-10T15:03:44.369Z,9.10
2022-11-10T15:06:41.869Z,7.39
2022-11-10T15:09:35.436Z,9.49
2022-11-10T15:12:27.483Z,7.81
2022-11-10T15:15:23.620Z,8.87
2022-11-10T15:18:26.447Z,9.47
2022-11-10T15:21:18.066Z,8.74
2022-11-10T15:24:08.633Z,8.65
2022-11-10T15:26:57.707Z,9.61
2022-11-10T15:30:23.432Z,9.60
2022-11-10T15:33:22.998Z,9.69
2022-11-10T15:36:28.767Z,9.91
2022-11-10T15:39:23.614Z,9.74
2022-11-10T15:42:16.909Z,9.86
2022-11-10T15:45:06.672Z,9.53
2022-11-10T15:47:58.109Z,8.08
2022-11-10T15:50:50.389Z,9.03
2022-11-10T15:53:42.672Z,9.19
2022-11-10T15:56:34.166Z,9.56
2022-11-10T15:59:24.758Z,9.39
2022-11-10T16:02:21.961Z,7.83
2022-11-10T16:05:13.556Z,8.03
2022-11-10T16:08:02.708Z,9.72
2022-11-10T16:10:56.884Z,9.74
2022-11-10T16:13:45.485Z,9.48
2022-11-10T16:16:35.064Z,7.86
2022-11-10T16:19:23.734Z,9.14
2022-11-10T16:22:12.752Z,8.22
2022-11-10T16:25:00.721Z,9.67
2022-11-10T16:27:50.312Z,8.32
2022-11-10T16:30:38.336Z,9.37
2022-11-10T16:33:27.963Z,9.67
2022-11-10T16:36:26.280Z,9.78
2022-11-10T16:39:15.401Z,9.57
2022-11-10T16:42:03.352Z,9.61
2022-11-10T16:44:52.894Z,9.65
2022-11-10T16:47:41.636Z,9.73
2022-11-10T16:50:35.474Z,9.51
2022-11-10T16:53:25.499Z,9.58
2022-11-10T16:56:15.916Z,9.54
2022-11-10T16:59:04.813Z,9.67
2022-11-10T17:01:55.355Z,9.55
2022-11-10T17:04:43.637Z,9.37
2022-11-10T17:07:31.759Z,9.87
2022-11-10T17:10:22.050Z,9.80
2022-11-10T17:13:12.712Z,9.49
2022-11-10T17:16:05.958Z,9.16
2022-11-10T17:19:00.818Z,8.94
2022-11-10T17:21:52.930Z,9.25
2022-11-10T17:24:41.460Z,9.73
2022-11-10T17:27:33.971Z,9.75
2022-11-10T17:30:25.447Z,9.37
2022-11-10T17:33:18.819Z,9.72
2022-11-10T17:36:15.640Z,8.55
2022-11-10T17:39:04.555Z,9.81
2022-11-10T17:41:52.750Z,10.09
2022-11-10T17:44:41.191Z,9.70
2022-11-10T17:47:29.139Z,9.55
2022-11-10T17:50:18.401Z,9.55
2022-11-10T17:53:40.554Z,9.68
2022-11-10T17:56:29.980Z,9.82
2022-11-10T17:59:18.359Z,9.65
2022-11-10T18:02:10.472Z,8.51
2022-11-10T18:05:00.240Z,9.48
2022-11-10T18:07:51.359Z,9.58
2022-11-10T18:10:42.860Z,9.63
2022-11-10T18:13:31.199Z,9.56
2022-11-10T18:16:19.436Z,9.76
2022-11-10T18:19:07.486Z,9.32
2022-11-10T18:21:56.305Z,9.16
2022-11-10T18:24:44.332Z,9.76
2022-11-10T18:27:36.832Z,9.60
2022-11-10T18:30:25.560Z,9.47
2022-11-10T18:33:15.408Z,9.39
2022-11-10T18:36:06.577Z,9.05
2022-11-10T18:39:03.771Z,8.86
2022-11-10T18:41:53.805Z,9.69
2022-11-10T18:44:44.161Z,9.72
2022-11-10T18:47:32.446Z,8.81
2022-11-10T18:50:20.801Z,9.56
2022-11-10T18:53:08.794Z,9.65
2022-11-10T18:55:57.432Z,9.70
2022-11-10T18:58:45.909Z,9.83
2022-11-10T19:01:35.487Z,9.01
2022-11-10T19:04:26.960Z,9.75
2022-11-10T19:07:17.324Z,9.75
2022-11-10T19:10:09.575Z,9.20
2022-11-10T19:13:02.414Z,9.34
2022-11-10T19:15:53.710Z,10.09
2022-11-10T19:18:48.129Z,9.31
2022-11-10T19:22:03.153Z,8.19
2022-11-10T19:25:09.623Z,9.04
2022-11-10T19:28:00.190Z,9.03
2022-11-10T19:31:02.127Z,8.95
2022-11-10T19:33:56.003Z,9.64
2022-11-10T19:36:51.683Z,9.76
2022-11-10T19:39:43.531Z,9.05
2022-11-10T19:42:34.303Z,9.96
2022-11-10T19:45:24.228Z,8.69
2022-11-10T19:48:16.016Z,9.93
2022-11-10T19:51:11.230Z,8.14
2022-11-10T19:54:03.606Z,8.63
2022-11-10T19:56:57.115Z,8.92
2022-11-10T19:59:51.928Z,9.94
2022-11-10T20:02:55.166Z,10.17
2022-11-10T20:05:49.551Z,9.80
2022-11-10T20:08:40.371Z,9.54
2022-11-10T20:11:30.832Z,8.52
2022-11-10T20:14:24.010Z,9.09
2022-11-10T20:17:16.956Z,8.77
2022-11-10T20:20:11.308Z,9.21
2022-11-10T20:23:06.940Z,10.07
2022-11-10T20:26:07.358Z,9.77
2022-11-10T20:29:14.877Z,9.81
2022-11-10T20:32:09.000Z,7.88
2022-11-10T20:35:00.423Z,9.92
2022-11-10T20:37:52.249Z,9.69
2022-11-10T20:41:05.967Z,8.83
2022-11-10T20:44:03.755Z,9.28
2022-11-10T20:46:54.764Z,10.32
2022-11-10T20:49:51.205Z,9.17
2022-11-10T20:52:49.590Z,9.91
2022-11-10T20:56:04.747Z,9.17
2022-11-10T20:59:04.009Z,10.06
2022-11-10T21:01:56.327Z,9.99
2022-11-10T21:04:47.164Z,9.05
2022-11-10T21:07:39.672Z,9.87
2022-11-10T21:10:28.494Z,9.80
2022-11-10T21:16:24.284Z,8.83
2022-11-10T21:19:12.272Z,9.89
2022-11-10T21:22:02.522Z,9.87
2022-11-10T21:24:52.298Z,9.72
2022-11-10T21:27:40.393Z,9.58
2022-11-10T21:30:32.585Z,9.92
2022-11-10T21:33:23.272Z,9.93
2022-11-10T21:36:12.795Z,10.05
2022-11-10T21:39:01.816Z,9.12
2022-11-10T21:41:54.566Z,10.00
2022-11-10T21:44:42.768Z,9.94
2022-11-10T21:47:31.729Z,9.57
2022-11-10T21:50:24.608Z,8.77
2022-11-10T21:53:18.903Z,9.72
2022-11-10T21:56:10.247Z,9.63
2022-11-10T21:59:14.511Z,9.82
2022-11-10T22:02:06.582Z,9.20
2022-11-10T22:04:55.441Z,9.78
2022-11-10T22:07:45.129Z,9.59
2022-11-10T22:10:54.182Z,9.64
2022-11-10T22:14:00.273Z,9.80
2022-11-10T22:17:09.203Z,9.66
2022-11-10T22:19:59.819Z,9.76
2022-11-10T22:22:51.569Z,7.63
2022-11-10T22:25:48.893Z,8.80
2022-11-10T22:28:38.155Z,9.77
2022-11-10T22:31:27.668Z,9.79
2022-11-10T22:34:18.902Z,9.58
2022-11-10T22:37:08.856Z,9.52
2022-11-10T22:40:18.619Z,9.88
2022-11-10T22:43:26.254Z,9.82
2022-11-10T22:46:14.844Z,9.84
2022-11-10T22:49:03.651Z,9.52
2022-11-10T22:51:52.823Z,9.67
2022-11-10T22:54:41.222Z,9.90
2022-11-10T22:57:31.368Z,9.77
2022-11-10T23:00:20.379Z,9.85
2022-11-10T23:03:09.201Z,9.50
2022-11-10T23:05:58.171Z,9.75
2022-11-10T23:08:46.340Z,9.97
2022-11-10T23:11:34.906Z,9.98
2022-11-10T23:14:24.437Z,9.87
2022-11-10T23:17:12.834Z,9.48
2022-11-10T23:20:01.165Z,10.19
2022-11-10T23:22:49.197Z,10.18
2022-11-10T23:25:37.392Z,10.13
2022-11-10T23:28:28.579Z,10.09
2022-11-10T23:31:24.170Z,9.80
2022-11-10T23:34:14.107Z,10.06
2022-11-10T23:37:05.302Z,10.01
2022-11-10T23:39:54.441Z,9.55
2022-11-10T23:42:43.003Z,9.68
2022-11-10T23:46:00.075Z,9.87
2022-11-10T23:48:42.445Z,9.63
2022-11-10T23:51:30.658Z,9.86
2022-11-10T23:54:20.060Z,9.64
2022-11-10T23:57:08.454Z,9.63
2022-11-10T23:59:57.888Z,9.78
